Aérodrome :
LOGIN :

S'inscrire | Disclaimer

   EN    FR    IT 

 










Légende :    VFR   VFR Marginal   IFR   IFR Intensif   IFR Très Intensif
Visi : 
Plafond : 
>= 8 km
>= 3000ft
5 à 8 km
1000 à 3000 ft
1500m à 5 km
500 à 1000 ft
800 à 1500m
200 à 500 ft
< 800m
< 200 ft
Symboles :   Orages  Brouillard  Fortes neiges  Fortes précipitations  Vent > 20 kt
SIGMETs :   Divers  Orages  Givrage  Turbulence  Onde Orograph.  Cendres Volcan.







- Altitude de l'aérodrome : 2026 ft
- Code IATA : TOJ


LETO - Madrid Torrejon

DERNIER METAR :
  • 201100Z 06007KT 9999 FEW050TCU SCT068 17/10 Q1016 NOSIG

METARs EXPIRÉS :
  • 201000Z 07007KT 040V100 9999 FEW050 17/10 Q1016 NOSIG
  • 200900Z 09002KT CAVOK 18/09 Q1016 NOSIG

TAF TAF LETO
Valide du 20 à 12h jusqu'au 21 à 12h UTC


201100Z 2012/2112 15008KT 9999 SCT045 TX24/2015Z TN12/2105Z
BECMG 2016/2018 01010KT
TEMPO 2012/2019 SCT040TCU
PROB30
TEMPO 2016/2019 01015G25KT SHRA FEW040CB
Pas de NOTAMs connus pour ce terrain.
1 SIGMET publié pour la FIR Madrid (LECM) :
 
Orages noyés dans la masse
LECM SIGMET 3 VALID 201100/201300 LEVA
LECM MADRID FIR/UIR EMBD TS FCST WI N4149 W00213 - N4104 W00203 - N3944 W00548 - N4031 W00649 - N4109 W00641 - N4149 W00213 TOP FL320 STNR NC=



MET'MAP, la Météo Aéronautique d'un coup d'oeil ! - Copyright ORBIFLY Décembre 2007 - Disclaimer

ORBIFLY MET'MAP TEAM :

Programmation & Développement : Alexandra Zaïnal
Conception & Développement : Baudouin d'Aumeries
Co-Programmation & Développement : Marc-Olivier Méhu
Soutien technique & logistique : Manuel Goepfert

Contact : metmap@orbifly.com




SOURCES & CREDITS :

   NOAA